Time;durP1;ratioP1;P1;durP2;ratioP2;P2;SDS_P1;SDS_P2;PMS_P1;PMS_P2;Temp;Humidity;BMP_temperature;BMP_pressure;BME280_temperature;BME280_humidity;BME280_pressure;Samples;Min_cycle;Max_cycle;Signal;HPM_P1;HPM_P2
2023/09/06 00:02:15;;;;;;;6.13;5.63;;;18.80;99.60;;;;;;10371829;28;20211;-81
2023/09/06 00:07:17;;;;;;;5.80;5.30;;;18.70;99.80;;;;;;10351244;28;20196;-80
2023/09/06 00:12:21;;;;;;;7.00;6.40;;;18.70;99.90;;;;;;10341726;28;20267;-81
2023/09/06 00:17:23;;;;;;;6.00;5.50;;;18.60;99.90;;;;;;10366564;28;20204;-81
2023/09/06 00:22:25;;;;;;;6.47;5.80;;;18.60;99.80;;;;;;10373184;28;20226;-81
2023/09/06 00:27:29;;;;;;;7.57;6.97;;;18.60;99.90;;;;;;10352696;28;20222;-81
2023/09/06 00:32:31;;;;;;;5.90;5.50;;;18.50;99.90;;;;;;10372000;28;20223;-81
2023/09/06 00:37:38;;;;;;;6.60;6.00;;;18.40;99.90;;;;;;10384225;28;20196;-81
2023/09/06 00:42:41;;;;;;;6.53;5.93;;;18.40;99.90;;;;;;10374423;28;20277;-81
2023/09/06 00:47:44;;;;;;;6.50;6.00;;;18.40;99.60;;;;;;10336467;28;20206;-81
2023/09/06 00:52:47;;;;;;;6.07;5.57;;;18.30;99.70;;;;;;10390456;28;20223;-80
2023/09/06 00:57:51;;;;;;;6.23;5.73;;;18.30;99.80;;;;;;10377425;28;20207;-80
2023/09/06 01:02:53;;;;;;;5.90;5.50;;;18.20;99.40;;;;;;10341444;28;20224;-80
2023/09/06 01:08:01;;;;;;;7.10;6.50;;;18.10;99.80;;;;;;10371022;28;20207;-81
2023/09/06 01:13:05;;;;;;;6.30;5.80;;;18.10;99.90;;;;;;10328348;28;20273;-81
2023/09/06 01:18:08;;;;;;;6.40;5.90;;;18.10;99.90;;;;;;10368984;28;20218;-81
2023/09/06 01:23:37;;;;;;;6.03;5.63;;;18.10;99.90;;;;;;10346442;28;20255;-81
2023/09/06 01:28:41;;;;;;;6.97;6.27;;;18.10;99.90;;;;;;10365907;28;20192;-81
2023/09/06 01:33:43;;;;;;;5.83;5.33;;;18.00;99.90;;;;;;10324556;28;20223;-80
2023/09/06 01:38:45;;;;;;;7.10;6.50;;;18.00;99.90;;;;;;10342952;28;20207;-80
2023/09/06 01:43:50;;;;;;;6.13;5.63;;;18.00;99.90;;;;;;10370130;28;20184;-80
2023/09/06 01:48:52;;;;;;;6.20;5.70;;;17.90;99.90;;;;;;10329573;28;20236;-81
2023/09/06 01:53:54;;;;;;;6.70;6.10;;;18.00;99.90;;;;;;10385846;28;20219;-81
2023/09/06 01:58:58;;;;;;;6.50;6.00;;;17.90;99.90;;;;;;10368417;28;20246;-78
2023/09/06 02:04:01;;;;;;;7.10;6.60;;;17.80;99.90;;;;;;10327104;28;20204;-81
2023/09/06 02:09:04;;;;;;;5.87;5.47;;;17.90;99.90;;;;;;10369986;28;20375;-80
2023/09/06 02:14:07;;;;;;;6.10;5.70;;;17.90;99.90;;;;;;10349696;28;20194;-81
2023/09/06 02:19:11;;;;;;;6.20;5.70;;;17.80;99.90;;;;;;10327651;28;20228;-81
2023/09/06 02:24:13;;;;;;;6.53;6.03;;;17.80;99.90;;;;;;10367153;28;20216;-81
2023/09/06 02:29:17;;;;;;;6.90;6.33;;;17.80;99.90;;;;;;10372940;28;20656;-81
2023/09/06 02:34:19;;;;;;;6.23;5.73;;;17.70;99.90;;;;;;10330333;28;20204;-80
2023/09/06 02:39:21;;;;;;;6.43;5.87;;;17.70;99.90;;;;;;10348899;28;20291;-81
2023/09/06 02:44:24;;;;;;;7.07;6.50;;;17.70;99.90;;;;;;10373010;28;20203;-80
2023/09/06 02:49:27;;;;;;;5.77;5.37;;;17.60;99.90;;;;;;10337093;28;20220;-81
2023/09/06 02:54:29;;;;;;;7.17;6.57;;;17.60;99.90;;;;;;10364690;28;20207;-80
2023/09/06 02:59:33;;;;;;;6.07;5.67;;;17.50;99.90;;;;;;10353608;28;20615;-80
2023/09/06 03:04:37;;;;;;;6.30;5.87;;;17.50;99.90;;;;;;10361346;28;20211;-81
2023/09/06 03:09:40;;;;;;;8.30;7.50;;;17.50;99.90;;;;;;10338329;28;20620;-80
2023/09/06 03:14:48;;;;;;;6.60;6.10;;;17.40;99.90;;;;;;10351766;28;20199;-80
2023/09/06 03:19:53;;;;;;;7.50;6.90;;;17.30;99.90;;;;;;10344304;28;20219;-80
2023/09/06 03:24:57;;;;;;;6.20;5.80;;;17.30;99.90;;;;;;10334981;28;20204;-80
2023/09/06 03:30:00;;;;;;;7.17;6.50;;;17.30;99.90;;;;;;10349962;28;20227;-80
2023/09/06 03:35:04;;;;;;;6.60;6.00;;;17.30;99.90;;;;;;10355795;28;20252;-81
2023/09/06 03:40:25;;;;;;;6.90;6.30;;;17.20;99.90;;;;;;10355687;28;20227;-80
2023/09/06 03:45:29;;;;;;;6.00;5.50;;;17.20;99.90;;;;;;10367623;28;20203;-81
2023/09/06 03:50:33;;;;;;;6.37;5.80;;;17.20;99.90;;;;;;10375703;28;20258;-80
2023/09/06 03:55:38;;;;;;;6.67;6.10;;;17.20;99.90;;;;;;10351099;28;20199;-80
2023/09/06 04:00:44;;;;;;;7.27;6.77;;;17.20;99.90;;;;;;10342425;28;20280;-80
2023/09/06 04:05:57;;;;;;;7.47;6.77;;;17.10;99.90;;;;;;10353100;28;20215;-80
2023/09/06 04:10:59;;;;;;;8.13;6.70;;;17.10;99.90;;;;;;10352372;28;20220;-79
2023/09/06 04:16:05;;;;;;;6.80;6.20;;;17.10;99.90;;;;;;10353745;28;20214;-80
2023/09/06 04:21:11;;;;;;;6.13;5.73;;;17.00;99.90;;;;;;10347535;28;20220;-80
2023/09/06 04:26:16;;;;;;;6.90;6.30;;;17.00;99.90;;;;;;10352544;28;20254;-81
2023/09/06 04:31:20;;;;;;;7.10;6.50;;;16.90;99.90;;;;;;10328953;28;20243;-80
2023/09/06 04:36:23;;;;;;;6.57;5.47;;;16.90;99.90;;;;;;10321523;28;20200;-81
2023/09/06 04:41:32;;;;;;;6.43;5.93;;;16.90;99.90;;;;;;10369597;28;20219;-80
2023/09/06 04:46:38;;;;;;;6.60;6.10;;;16.90;99.90;;;;;;10324224;28;20226;-81
2023/09/06 04:51:41;;;;;;;7.13;6.43;;;16.90;99.90;;;;;;10324681;28;20315;-81
2023/09/06 04:56:43;;;;;;;8.00;6.50;;;16.80;99.90;;;;;;10352596;28;20200;-81
2023/09/06 05:01:47;;;;;;;6.90;6.40;;;16.80;99.90;;;;;;10352540;28;20219;-81
2023/09/06 05:06:50;;;;;;;7.60;6.10;;;16.90;99.90;;;;;;10377617;28;20203;-81
2023/09/06 05:11:52;;;;;;;7.30;6.07;;;16.90;99.90;;;;;;10358504;28;20258;-81
2023/09/06 05:16:58;;;;;;;7.37;6.57;;;16.90;99.90;;;;;;10344878;28;20253;-80
2023/09/06 05:22:02;;;;;;;6.70;6.20;;;16.90;99.90;;;;;;10362347;28;20291;-80
2023/09/06 05:27:05;;;;;;;6.80;6.30;;;16.90;99.90;;;;;;10379108;28;20211;-81
2023/09/06 05:32:09;;;;;;;6.77;6.20;;;16.90;99.90;;;;;;10359819;28;20230;-81
2023/09/06 05:37:11;;;;;;;7.90;6.67;;;16.80;99.90;;;;;;10359907;28;20207;-81
2023/09/06 05:42:13;;;;;;;7.37;6.77;;;16.80;99.90;;;;;;10376055;28;20223;-81
2023/09/06 05:47:17;;;;;;;6.97;6.30;;;16.90;99.90;;;;;;10377831;28;20218;-81
2023/09/06 05:52:22;;;;;;;7.57;6.87;;;16.90;99.90;;;;;;10377928;28;20265;-81
2023/09/06 05:57:24;;;;;;;6.50;5.90;;;16.90;99.90;;;;;;10360071;28;20199;-81
2023/09/06 06:02:44;;;;;;;7.40;6.80;;;16.90;99.90;;;;;;10413042;23;20226;-78
2023/09/06 06:08:01;;;;;;;7.47;6.87;;;17.00;99.90;;;;;;10432195;28;20252;-78
2023/09/06 06:13:21;;;;;;;6.83;6.23;;;17.00;99.90;;;;;;10445438;28;20845;-78
2023/09/06 06:18:43;;;;;;;6.70;6.20;;;17.10;99.90;;;;;;10453261;28;20213;-78
2023/09/06 06:24:02;;;;;;;10.40;9.50;;;17.20;99.90;;;;;;10456747;28;20591;-78
2023/09/06 06:29:28;;;;;;;12.80;8.17;;;17.20;99.90;;;;;;10455520;28;20287;-77
2023/09/06 06:34:49;;;;;;;8.00;7.30;;;17.30;99.90;;;;;;10415484;28;20230;-78
2023/09/06 06:40:07;;;;;;;7.83;7.03;;;17.30;99.90;;;;;;10456855;28;20233;-78
2023/09/06 06:45:32;;;;;;;7.57;6.97;;;17.50;99.90;;;;;;10454897;28;20194;-78
2023/09/06 06:50:57;;;;;;;7.73;6.87;;;17.50;99.90;;;;;;10455724;28;20228;-78
2023/09/06 07:02:08;;;;;;;6.43;5.83;;;17.80;99.90;;;;;;10424253;28;20260;-78
2023/09/06 07:07:37;;;;;;;7.20;6.53;;;17.90;99.90;;;;;;10496643;28;20250;-78
2023/09/06 07:12:57;;;;;;;7.60;6.90;;;18.10;99.90;;;;;;10496259;28;20228;-77
2023/09/06 07:18:19;;;;;;;6.53;6.00;;;18.20;99.90;;;;;;10497349;28;20201;-78
2023/09/06 07:29:39;;;;;;;6.67;6.17;;;18.40;99.90;;;;;;10404106;28;20213;-78
2023/09/06 07:41:17;;;;;;;6.90;6.37;;;18.60;99.90;;;;;;10458949;28;20229;-78
2023/09/06 07:53:48;;;;;;;6.83;6.33;;;18.80;99.90;;;;;;10445049;28;20240;-78
2023/09/06 08:06:08;;;;;;;6.97;6.27;;;19.10;99.90;;;;;;10498203;28;20204;-79
2023/09/06 08:18:08;;;;;;;6.47;5.87;;;19.30;99.90;;;;;;10442207;28;20677;-78
2023/09/06 08:30:38;;;;;;;11.00;10.03;;;19.60;99.90;;;;;;10357342;28;20416;-79
2023/09/06 08:37:01;;;;;;;6.53;5.93;;;19.80;99.90;;;;;;10311208;28;20735;-79
2023/09/06 08:57:17;;;;;;;10.20;5.67;;;20.10;99.90;;;;;;10368233;28;20287;-79
2023/09/06 09:03:10;;;;;;;7.10;6.40;;;20.30;99.90;;;;;;10139553;29;20736;-79
2023/09/06 10:04:28;;;;;;;;;;;;;;;;;;;;;
2023/09/06 10:10:46;;;;;;;6.53;6.03;;;23.00;97.90;;;;;;10507510;28;20200;-80
2023/09/06 10:24:27;;;;;;;7.50;6.90;;;23.00;97.60;;;;;;10147495;29;20555;-79
2023/09/06 10:31:16;;;;;;;6.67;6.07;;;22.80;97.80;;;;;;10203678;28;20228;-79
2023/09/06 11:05:06;;;;;;;5.77;5.37;;;22.40;99.50;;;;;;10379798;28;20246;-80
2023/09/06 11:30:15;;;;;;;6.97;6.27;;;22.40;99.40;;;;;;10494756;28;20197;-79
2023/09/06 11:36:36;;;;;;;6.57;5.97;;;22.40;99.50;;;;;;10307657;28;20332;-80
2023/09/06 12:03:13;;;;;;;5.77;5.27;;;22.50;99.90;;;;;;10421086;23;20260;-78
2023/09/06 12:08:19;;;;;;;6.40;5.80;;;22.50;99.70;;;;;;10519668;28;20204;-79
2023/09/06 12:13:26;;;;;;;8.10;6.20;;;22.50;99.30;;;;;;10540911;28;20247;-80
2023/09/06 12:18:30;;;;;;;5.13;4.80;;;22.60;98.70;;;;;;10539910;28;20216;-79
2023/09/06 12:23:33;;;;;;;5.80;5.30;;;22.70;98.20;;;;;;10540023;28;20682;-80
2023/09/06 12:28:35;;;;;;;5.43;5.03;;;22.90;97.70;;;;;;10539058;28;20669;-79
2023/09/06 12:33:39;;;;;;;5.30;4.90;;;23.00;98.00;;;;;;10534797;28;20224;-79
2023/09/06 12:38:42;;;;;;;5.50;5.10;;;23.10;97.30;;;;;;10538368;28;20212;-79
2023/09/06 12:43:44;;;;;;;5.23;4.83;;;23.30;96.80;;;;;;10518572;28;20373;-79
2023/09/06 12:48:47;;;;;;;5.60;5.10;;;23.30;96.90;;;;;;10536899;28;20206;-80
2023/09/06 12:53:50;;;;;;;6.23;5.63;;;23.50;95.90;;;;;;10538663;28;20226;-79
2023/09/06 12:58:52;;;;;;;5.30;4.80;;;23.60;96.30;;;;;;10540332;28;20227;-79
2023/09/06 13:03:55;;;;;;;8.07;5.17;;;23.60;96.70;;;;;;10538666;28;20227;-80
2023/09/06 13:08:57;;;;;;;5.73;5.10;;;23.70;96.00;;;;;;10538986;28;20188;-79
2023/09/06 13:14:00;;;;;;;6.73;6.13;;;23.70;96.40;;;;;;10539447;28;20223;-79
2023/09/06 13:19:04;;;;;;;6.40;4.97;;;23.70;96.20;;;;;;10521144;28;20220;-79
2023/09/06 13:24:06;;;;;;;5.60;5.20;;;23.70;96.80;;;;;;10520559;28;20212;-80
2023/09/06 13:29:08;;;;;;;6.47;5.97;;;23.60;96.70;;;;;;10518881;28;20204;-80
2023/09/06 13:34:12;;;;;;;5.27;4.40;;;23.70;95.70;;;;;;10536945;28;20224;-80
2023/09/06 13:39:15;;;;;;;4.23;3.83;;;23.80;96.20;;;;;;10539175;28;20189;-80
2023/09/06 13:44:17;;;;;;;5.00;4.70;;;23.90;95.70;;;;;;10538934;28;20224;-80
2023/09/06 13:49:20;;;;;;;5.33;4.93;;;24.00;95.00;;;;;;10520922;28;20237;-80
2023/09/06 13:54:23;;;;;;;4.93;4.40;;;24.20;95.00;;;;;;10538494;28;20216;-79
2023/09/06 13:59:25;;;;;;;5.20;4.70;;;24.30;93.60;;;;;;10537659;28;20267;-80
2023/09/06 14:04:29;;;;;;;5.90;5.07;;;24.40;94.50;;;;;;10537445;28;20232;-80
2023/09/06 14:09:31;;;;;;;4.27;3.97;;;24.30;95.30;;;;;;10536283;28;20196;-79
2023/09/06 14:14:33;;;;;;;4.87;4.47;;;24.30;95.20;;;;;;10539148;28;20220;-80
2023/09/06 14:19:37;;;;;;;4.37;4.07;;;24.30;94.70;;;;;;10539481;28;20201;-79
2023/09/06 14:24:39;;;;;;;5.07;4.63;;;24.20;96.10;;;;;;10520269;28;20209;-80
2023/09/06 14:29:41;;;;;;;5.80;4.83;;;24.10;96.50;;;;;;10538457;28;20648;-80
2023/09/06 14:34:44;;;;;;;4.33;4.03;;;24.10;94.70;;;;;;10527004;28;20743;-79
2023/09/06 14:39:47;;;;;;;4.43;4.10;;;24.30;94.90;;;;;;10547681;28;20201;-80
2023/09/06 14:44:49;;;;;;;4.90;4.50;;;24.40;94.90;;;;;;10545513;28;20584;-79
2023/09/06 14:49:53;;;;;;;5.10;4.60;;;24.40;95.80;;;;;;10527883;28;20205;-79
2023/09/06 14:54:55;;;;;;;4.70;4.30;;;24.50;95.50;;;;;;10544593;28;20586;-80
2023/09/06 14:59:57;;;;;;;4.90;4.50;;;24.80;95.20;;;;;;10543588;28;20197;-80
2023/09/06 15:05:01;;;;;;;5.03;4.07;;;24.80;95.40;;;;;;10544894;28;20232;-80
2023/09/06 15:10:04;;;;;;;7.93;4.67;;;24.70;95.50;;;;;;10544612;28;20262;-80
2023/09/06 15:15:07;;;;;;;5.40;5.00;;;24.60;95.80;;;;;;10543701;28;20233;-80
2023/09/06 15:20:12;;;;;;;6.00;5.50;;;24.60;95.50;;;;;;10544632;28;20560;-79
2023/09/06 15:25:14;;;;;;;5.13;4.53;;;24.50;96.00;;;;;;10538208;28;20220;-81
2023/09/06 15:30:16;;;;;;;5.80;4.67;;;24.40;96.70;;;;;;10525445;28;20798;-80
2023/09/06 15:35:24;;;;;;;5.77;3.90;;;24.30;96.40;;;;;;10542507;28;20231;-79
2023/09/06 15:40:27;;;;;;;4.50;3.70;;;24.10;96.70;;;;;;10541037;28;20205;-80
2023/09/06 15:45:29;;;;;;;3.70;3.40;;;24.10;96.90;;;;;;10543227;28;20203;-79
2023/09/06 15:50:32;;;;;;;5.10;4.70;;;24.10;96.80;;;;;;10541826;28;20201;-79
2023/09/06 15:55:34;;;;;;;3.77;3.43;;;24.10;96.90;;;;;;10523714;28;20289;-80
2023/09/06 16:00:36;;;;;;;4.17;3.87;;;24.00;95.90;;;;;;10539855;28;20204;-81
2023/09/06 16:05:40;;;;;;;6.17;4.17;;;24.10;95.80;;;;;;10540912;28;20195;-80
2023/09/06 16:10:42;;;;;;;4.70;3.70;;;24.10;95.60;;;;;;10541560;28;20223;-80
2023/09/06 16:15:44;;;;;;;4.20;3.80;;;24.20;95.70;;;;;;10539577;28;20212;-80
2023/09/06 16:20:48;;;;;;;3.37;3.10;;;24.10;96.60;;;;;;10541059;28;20235;-80
2023/09/06 16:25:50;;;;;;;3.57;3.37;;;24.00;95.40;;;;;;10523942;28;20192;-80
2023/09/06 16:30:52;;;;;;;4.07;3.77;;;24.10;95.60;;;;;;10523299;28;20216;-80
2023/09/06 16:35:56;;;;;;;3.80;3.50;;;24.00;97.00;;;;;;10541890;28;20220;-80
2023/09/06 16:40:59;;;;;;;4.23;3.83;;;23.90;97.60;;;;;;10541537;28;20609;-80
2023/09/06 16:46:01;;;;;;;5.27;4.87;;;23.80;97.80;;;;;;10541271;28;20811;-79
2023/09/06 16:51:06;;;;;;;4.30;3.70;;;23.60;99.00;;;;;;10522866;28;20220;-80
2023/09/06 16:56:08;;;;;;;4.23;3.93;;;23.60;97.50;;;;;;10540923;28;20242;-80
2023/09/06 17:01:11;;;;;;;8.33;4.17;;;23.50;99.10;;;;;;10538538;28;20235;-79
2023/09/06 17:06:14;;;;;;;4.17;3.87;;;23.30;99.90;;;;;;10540563;28;20253;-79
2023/09/06 17:11:16;;;;;;;4.60;4.20;;;23.20;99.90;;;;;;10540818;28;20252;-80
2023/09/06 17:16:20;;;;;;;4.70;4.40;;;23.10;99.90;;;;;;10523018;28;20288;-79
2023/09/06 17:21:23;;;;;;;3.73;3.53;;;22.90;99.90;;;;;;10540553;28;20253;-79
2023/09/06 17:26:26;;;;;;;5.40;4.23;;;22.90;99.90;;;;;;10541547;28;20201;-79
2023/09/06 17:31:28;;;;;;;3.87;3.57;;;22.90;99.20;;;;;;10539029;28;20216;-79
2023/09/06 17:36:31;;;;;;;3.70;3.30;;;23.00;98.60;;;;;;10522741;28;20213;-80
2023/09/06 17:41:33;;;;;;;3.90;3.70;;;23.10;98.60;;;;;;10540140;28;20217;-79
2023/09/06 17:46:36;;;;;;;4.30;4.00;;;23.10;98.60;;;;;;10540116;28;20196;-80
2023/09/06 17:51:39;;;;;;;4.20;3.90;;;23.10;98.80;;;;;;10535647;28;20258;-80
2023/09/06 17:56:45;;;;;;;3.80;3.50;;;23.00;98.90;;;;;;10537379;28;20241;-80
2023/09/06 18:01:48;;;;;;;3.73;3.43;;;23.00;98.90;;;;;;10556424;22;20232;-80
2023/09/06 18:06:53;;;;;;;6.00;4.27;;;22.90;99.10;;;;;;10548966;28;20660;-82
2023/09/06 18:11:58;;;;;;;3.70;3.40;;;22.80;99.60;;;;;;10528133;28;20723;-82
2023/09/06 18:17:01;;;;;;;4.23;3.93;;;22.70;99.20;;;;;;10501426;28;20304;-82
2023/09/06 18:22:05;;;;;;;5.63;5.13;;;22.60;99.90;;;;;;10479965;28;20209;-82
2023/09/06 18:27:09;;;;;;;4.60;4.20;;;22.50;99.90;;;;;;10522110;28;20242;-82
2023/09/06 18:32:11;;;;;;;3.93;3.60;;;22.30;99.90;;;;;;10543234;28;20225;-82
2023/09/06 18:37:15;;;;;;;4.17;3.77;;;22.20;99.90;;;;;;10499858;28;20221;-80
2023/09/06 18:42:19;;;;;;;4.47;4.13;;;22.10;99.90;;;;;;10509041;28;20241;-81
2023/09/06 18:47:21;;;;;;;3.67;3.47;;;22.00;99.90;;;;;;10544030;28;20212;-81
2023/09/06 18:52:25;;;;;;;4.20;3.90;;;22.00;99.90;;;;;;10536907;28;20693;-81
2023/09/06 18:57:27;;;;;;;3.83;3.63;;;21.90;99.90;;;;;;10501903;28;20553;-79
2023/09/06 19:02:29;;;;;;;4.30;3.90;;;21.80;99.90;;;;;;10512480;28;20606;-80
2023/09/06 19:07:34;;;;;;;3.50;3.30;;;21.80;99.90;;;;;;10506340;28;20196;-81
2023/09/06 19:12:37;;;;;;;4.80;4.30;;;21.70;99.90;;;;;;10519983;28;20217;-81
2023/09/06 19:17:39;;;;;;;4.93;4.47;;;21.70;99.90;;;;;;10512092;28;20783;-81
2023/09/06 19:22:44;;;;;;;4.93;4.40;;;21.60;99.90;;;;;;10538363;28;20209;-81
2023/09/06 19:27:46;;;;;;;4.90;4.20;;;21.60;99.50;;;;;;10522413;28;20200;-80
2023/09/06 19:32:48;;;;;;;4.40;4.00;;;21.60;99.30;;;;;;10501920;28;20242;-81
2023/09/06 19:37:51;;;;;;;4.30;4.00;;;21.50;99.30;;;;;;10517409;28;20204;-81
2023/09/06 19:42:54;;;;;;;4.13;3.83;;;21.50;99.80;;;;;;10525127;28;20209;-81
2023/09/06 19:48:00;;;;;;;4.07;3.77;;;21.50;99.40;;;;;;10504430;28;20231;-81
2023/09/06 19:53:04;;;;;;;4.00;3.80;;;21.40;99.30;;;;;;10533498;28;20223;-81
2023/09/06 19:58:08;;;;;;;3.50;3.30;;;21.40;98.90;;;;;;10525311;28;20243;-81
2023/09/06 20:03:10;;;;;;;4.43;4.03;;;21.40;99.10;;;;;;10520261;28;20217;-81
2023/09/06 20:08:13;;;;;;;4.77;4.47;;;21.30;99.40;;;;;;10518662;28;20205;-81
2023/09/06 20:13:15;;;;;;;4.23;3.87;;;21.30;99.70;;;;;;10496913;28;20241;-81
2023/09/06 20:18:17;;;;;;;4.03;3.80;;;21.20;99.40;;;;;;10500253;28;20197;-81
2023/09/06 20:23:21;;;;;;;3.70;3.50;;;21.10;99.30;;;;;;10471565;28;20220;-80
2023/09/06 20:28:23;;;;;;;4.10;3.77;;;21.10;99.30;;;;;;10523667;28;20212;-81
2023/09/06 20:33:25;;;;;;;4.60;4.30;;;21.00;99.10;;;;;;10502224;28;20225;-81
2023/09/06 20:38:29;;;;;;;4.50;4.10;;;20.90;99.10;;;;;;10512726;28;20255;-81
2023/09/06 20:43:33;;;;;;;4.43;3.80;;;20.90;99.00;;;;;;10463479;28;20283;-81
2023/09/06 20:48:37;;;;;;;3.83;3.53;;;20.80;99.10;;;;;;10477076;28;20621;-81
2023/09/06 20:53:40;;;;;;;5.03;3.87;;;20.80;99.00;;;;;;10526413;28;20213;-81
2023/09/06 20:58:43;;;;;;;8.70;3.67;;;20.70;98.90;;;;;;10502359;28;20705;-81
2023/09/06 21:03:45;;;;;;;3.73;3.53;;;20.70;99.30;;;;;;10542340;28;20602;-81
2023/09/06 21:08:49;;;;;;;3.93;3.63;;;20.60;99.30;;;;;;10518746;28;20208;-81
2023/09/06 21:13:51;;;;;;;3.50;3.30;;;20.60;99.10;;;;;;10502281;28;20252;-81
2023/09/06 21:18:53;;;;;;;4.37;3.97;;;20.50;99.00;;;;;;10530834;28;20197;-81
2023/09/06 21:23:56;;;;;;;6.53;4.67;;;20.50;98.80;;;;;;10505320;28;20213;-81
2023/09/06 21:28:59;;;;;;;4.40;4.10;;;20.50;98.90;;;;;;10496438;28;20197;-79
2023/09/06 21:34:02;;;;;;;4.07;3.77;;;20.40;98.80;;;;;;10504079;28;20227;-81
2023/09/06 21:39:06;;;;;;;7.97;3.13;;;20.40;99.40;;;;;;10542040;28;20196;-80
2023/09/06 21:44:08;;;;;;;4.37;3.87;;;20.40;99.30;;;;;;10487467;28;20584;-81
2023/09/06 21:49:10;;;;;;;3.90;3.70;;;20.30;99.20;;;;;;10499335;28;20208;-81
2023/09/06 21:54:13;;;;;;;3.53;3.33;;;20.30;99.30;;;;;;10499094;28;20602;-81
2023/09/06 21:59:16;;;;;;;5.43;3.30;;;20.30;99.20;;;;;;10522821;28;20203;-81
2023/09/06 22:04:18;;;;;;;3.90;3.60;;;20.20;98.90;;;;;;10505495;28;20706;-81
2023/09/06 22:09:40;;;;;;;4.10;3.80;;;20.10;99.20;;;;;;10541947;28;20188;-82
2023/09/06 22:15:04;;;;;;;7.43;3.50;;;20.10;99.00;;;;;;10535123;28;20224;-81
2023/09/06 22:20:07;;;;;;;4.03;3.77;;;20.00;99.10;;;;;;10490513;28;20324;-81
2023/09/06 22:25:11;;;;;;;4.17;3.87;;;20.00;99.20;;;;;;10458619;28;20297;-81
2023/09/06 22:30:13;;;;;;;4.37;4.07;;;20.00;99.30;;;;;;10543556;28;20254;-81
2023/09/06 22:35:15;;;;;;;4.03;3.83;;;19.90;99.30;;;;;;10509565;28;20236;-81
2023/09/06 22:40:19;;;;;;;4.63;3.80;;;19.90;99.30;;;;;;10502030;28;20224;-81
2023/09/06 22:45:21;;;;;;;3.80;3.53;;;19.90;99.30;;;;;;10520891;28;20239;-81
2023/09/06 22:50:23;;;;;;;3.90;3.43;;;19.80;99.10;;;;;;10475346;28;20202;-81
2023/09/06 22:55:27;;;;;;;4.10;3.80;;;19.80;98.90;;;;;;10534017;28;20229;-81
2023/09/06 23:00:29;;;;;;;4.47;4.10;;;19.70;98.90;;;;;;10542539;28;20341;-81
2023/09/06 23:05:31;;;;;;;4.00;3.70;;;19.70;98.90;;;;;;10518667;28;20792;-81
2023/09/06 23:10:35;;;;;;;3.90;3.60;;;19.60;99.10;;;;;;10511124;28;20213;-81
2023/09/06 23:15:39;;;;;;;4.47;4.17;;;19.60;99.50;;;;;;10523334;28;20231;-81
2023/09/06 23:20:42;;;;;;;5.20;4.77;;;19.50;99.70;;;;;;10475824;28;20205;-81
2023/09/06 23:25:50;;;;;;;4.30;4.00;;;19.50;99.70;;;;;;10535205;28;20274;-81
2023/09/06 23:30:56;;;;;;;4.00;3.70;;;19.50;99.80;;;;;;10550020;28;20201;-81
2023/09/06 23:36:00;;;;;;;4.23;3.97;;;19.50;99.80;;;;;;10519859;28;20553;-81
2023/09/06 23:41:04;;;;;;;4.00;3.70;;;19.40;99.70;;;;;;10509712;28;20280;-81
2023/09/06 23:46:06;;;;;;;4.50;4.20;;;19.40;99.90;;;;;;10548348;28;20210;-81
2023/09/06 23:51:08;;;;;;;4.20;3.90;;;19.40;99.90;;;;;;10528011;28;20306;-81
2023/09/06 23:56:12;;;;;;;3.93;3.63;;;19.30;99.80;;;;;;10509549;28;20212;-81
